Time;durP1;ratioP1;P1;durP2;ratioP2;P2;SDS_P1;SDS_P2;PMS_P1;PMS_P2;Temp;Humidity;BMP_temperature;BMP_pressure;BME280_temperature;BME280_humidity;BME280_pressure;Samples;Min_cycle;Max_cycle;Signal;HPM_P1;HPM_P2
2022/05/20 00:03:08;;;;;;;81.55;48.63;;;;;;;10.52;100.00;102010.94;10545186;27;20097;-74
2022/05/20 00:08:09;;;;;;;91.10;49.50;;;;;;;10.55;100.00;102025.94;10560560;27;20064;-74
2022/05/20 00:13:10;;;;;;;78.68;46.63;;;;;;;10.49;100.00;102023.81;10476749;28;20499;-74
2022/05/20 00:18:10;;;;;;;74.95;49.83;;;;;;;10.39;100.00;102010.88;10511342;27;20036;-75
2022/05/20 00:23:11;;;;;;;85.93;51.50;;;;;;;10.35;100.00;102011.47;10528919;27;20056;-75
2022/05/20 00:28:12;;;;;;;76.45;48.08;;;;;;;10.40;100.00;102026.75;10526488;27;20127;-75
2022/05/20 00:33:13;;;;;;;90.45;50.92;;;;;;;10.29;100.00;102017.22;10526439;27;20029;-74
2022/05/20 00:38:14;;;;;;;98.30;55.92;;;;;;;10.30;100.00;102016.44;10507957;27;20032;-74
2022/05/20 00:43:16;;;;;;;104.35;62.45;;;;;;;10.27;100.00;102022.34;10525681;27;20032;-75
2022/05/20 00:48:17;;;;;;;100.20;59.50;;;;;;;10.26;100.00;102017.03;10525174;27;20071;-74
2022/05/20 00:53:19;;;;;;;105.82;63.10;;;;;;;10.19;100.00;102013.06;10527843;27;20038;-75
2022/05/20 00:58:20;;;;;;;93.90;56.05;;;;;;;10.08;100.00;102024.50;10524462;27;20039;-75
2022/05/20 01:03:24;;;;;;;85.20;53.88;;;;;;;9.96;100.00;102019.38;10509614;27;20089;-75
2022/05/20 01:08:27;;;;;;;83.20;50.13;;;;;;;9.91;100.00;102019.03;10511034;27;20040;-74
2022/05/20 01:13:28;;;;;;;91.18;57.80;;;;;;;9.84;100.00;102009.88;10524691;27;20471;-74
2022/05/20 01:18:31;;;;;;;91.03;51.87;;;;;;;9.77;100.00;102004.09;10525537;27;20377;-74
2022/05/20 01:23:33;;;;;;;97.53;57.25;;;;;;;9.77;100.00;102006.72;10508600;27;20266;-74
2022/05/20 01:28:33;;;;;;;115.10;65.80;;;;;;;9.72;100.00;102000.25;10490757;27;20391;-74
2022/05/20 01:33:36;;;;;;;102.18;58.45;;;;;;;9.63;100.00;101997.94;10523831;27;20070;-74
2022/05/20 01:38:37;;;;;;;91.80;57.25;;;;;;;9.57;100.00;101982.72;10508325;27;20032;-74
2022/05/20 01:43:59;;;;;;;93.93;55.42;;;;;;;9.55;100.00;101974.78;10505043;27;20028;-74
2022/05/20 01:49:25;;;;;;;91.78;55.58;;;;;;;9.48;100.00;101972.53;10520891;27;20044;-74
2022/05/20 01:54:40;;;;;;;95.30;56.03;;;;;;;9.53;100.00;101962.38;10522315;27;20040;-74
2022/05/20 01:59:47;;;;;;;116.00;64.40;;;;;;;9.48;100.00;101964.69;10523164;27;20483;-74
2022/05/20 02:04:49;;;;;;;108.38;61.20;;;;;;;9.37;100.00;101961.31;10525522;27;20081;-74
2022/05/20 02:09:57;;;;;;;106.60;63.67;;;;;;;9.36;100.00;101963.84;10505659;27;20560;-74
2022/05/20 02:15:02;;;;;;;113.78;67.40;;;;;;;9.44;100.00;101962.69;10507224;27;20043;-74
2022/05/20 02:20:16;;;;;;;129.35;67.68;;;;;;;9.39;100.00;101967.56;10495085;28;20032;-75
2022/05/20 02:25:19;;;;;;;130.48;75.15;;;;;;;9.29;100.00;101970.31;10515379;28;20033;-74
2022/05/20 02:30:23;;;;;;;129.93;71.85;;;;;;;9.27;100.00;101969.31;10524498;27;20040;-75
2022/05/20 02:35:23;;;;;;;118.22;69.07;;;;;;;9.16;100.00;101954.59;10506987;27;20484;-74
2022/05/20 02:40:24;;;;;;;120.25;68.32;;;;;;;9.05;100.00;101951.22;10522343;27;20066;-74
2022/05/20 02:45:24;;;;;;;131.23;74.35;;;;;;;8.99;100.00;101963.84;10524325;27;20040;-74
2022/05/20 02:50:25;;;;;;;98.78;58.58;;;;;;;9.04;100.00;101955.53;10523829;27;20036;-75
2022/05/20 02:55:26;;;;;;;100.65;62.47;;;;;;;9.15;100.00;101956.31;10522879;27;20040;-75
2022/05/20 03:05:46;;;;;;;98.85;59.03;;;;;;;9.37;100.00;101939.53;10495163;28;20127;-75
2022/05/20 03:10:46;;;;;;;150.13;81.93;;;;;;;9.42;100.00;101942.44;10520979;27;20044;-75
2022/05/20 03:15:47;;;;;;;161.63;79.90;;;;;;;9.38;100.00;101941.34;10531353;27;20040;-74
2022/05/20 03:20:47;;;;;;;166.27;73.35;;;;;;;9.39;100.00;101936.22;10530111;27;20131;-75
2022/05/20 03:25:48;;;;;;;140.93;76.60;;;;;;;9.43;100.00;101942.56;10531098;27;20109;-74
2022/05/20 03:30:48;;;;;;;111.88;64.10;;;;;;;9.39;100.00;101937.94;10529730;27;20040;-74
2022/05/20 03:35:49;;;;;;;121.30;71.25;;;;;;;9.28;100.00;101960.69;10530532;27;20032;-74
2022/05/20 03:40:49;;;;;;;119.60;67.22;;;;;;;9.20;100.00;101961.84;10521304;27;20072;-75
2022/05/20 03:45:53;;;;;;;106.80;63.30;;;;;;;9.16;100.00;101949.34;10530656;27;20112;-74
2022/05/20 03:50:54;;;;;;;91.00;52.78;;;;;;;9.14;100.00;101946.66;10509914;28;20033;-74
2022/05/20 03:55:54;;;;;;;114.32;66.68;;;;;;;9.28;100.00;101938.88;10541746;27;20040;-74
2022/05/20 04:06:14;;;;;;;96.68;56.00;;;;;;;9.39;100.00;101917.03;10529055;27;20040;-74
2022/05/20 04:11:15;;;;;;;103.40;57.70;;;;;;;9.55;100.00;101914.66;10528290;27;20036;-75
2022/05/20 04:16:16;;;;;;;113.88;62.88;;;;;;;9.63;100.00;101909.94;10507884;27;20146;-74
2022/05/20 04:21:16;;;;;;;93.20;57.67;;;;;;;9.82;100.00;101909.50;10525746;27;20074;-74
2022/05/20 04:26:17;;;;;;;89.57;56.33;;;;;;;10.01;100.00;101908.13;10527080;27;20127;-74
2022/05/20 04:31:17;;;;;;;90.35;57.08;;;;;;;10.13;100.00;101902.78;10527515;27;20119;-74
2022/05/20 04:36:18;;;;;;;78.72;51.78;;;;;;;10.20;100.00;101894.53;10526600;27;20036;-75
2022/05/20 04:51:57;;;;;;;86.78;57.05;;;;;;;10.77;100.00;101885.97;10525032;27;20480;-74
2022/05/20 04:56:57;;;;;;;84.38;50.25;;;;;;;10.94;100.00;101877.44;10523945;27;20125;-75
2022/05/20 05:01:58;;;;;;;81.20;53.22;;;;;;;11.15;100.00;101862.13;10532776;27;20399;-74
2022/05/20 05:06:58;;;;;;;76.82;49.63;;;;;;;11.41;100.00;101865.44;10529365;27;20056;-74
2022/05/20 05:11:59;;;;;;;73.05;48.97;;;;;;;11.62;100.00;101857.03;10524309;27;20398;-74
2022/05/20 05:16:59;;;;;;;106.30;67.00;;;;;;;12.18;100.00;101858.56;10524036;27;20059;-74
2022/05/20 05:22:01;;;;;;;96.00;58.75;;;;;;;13.26;100.00;101864.34;10519900;27;20135;-74
2022/05/20 05:27:02;;;;;;;70.00;43.20;;;;;;;14.22;100.00;101862.22;10545486;27;20373;-74
2022/05/20 05:32:03;;;;;;;49.08;37.08;;;;;;;15.34;100.00;101848.91;10507478;27;20028;-75
2022/05/20 05:37:03;;;;;;;43.35;33.25;;;;;;;15.93;99.77;101846.13;10523230;27;20039;-75
2022/05/20 05:42:04;;;;;;;41.10;30.10;;;;;;;17.19;85.64;101842.13;10523656;27;20483;-75
2022/05/20 05:47:05;;;;;;;31.08;25.63;;;;;;;18.50;78.48;101856.22;10525441;27;20047;-77
2022/05/20 05:52:08;;;;;;;29.80;22.23;;;;;;;19.75;70.62;101847.28;10527687;27;20495;-74
2022/05/20 05:57:09;;;;;;;28.98;23.08;;;;;;;20.78;63.13;101847.97;10506043;27;20542;-73
2022/05/20 06:02:09;;;;;;;26.03;20.10;;;;;;;21.77;58.24;101838.28;10466132;28;20048;-74
2022/05/20 06:07:10;;;;;;;21.87;18.47;;;;;;;21.79;58.71;101837.44;10494772;27;20087;-74
2022/05/20 06:12:11;;;;;;;29.00;23.37;;;;;;;21.97;57.22;101830.63;10514218;27;20123;-76
2022/05/20 06:17:11;;;;;;;27.52;24.17;;;;;;;22.23;56.84;101835.47;10521615;27;20445;-76
2022/05/20 06:22:12;;;;;;;31.03;24.03;;;;;;;23.08;53.57;101838.34;10524969;27;20037;-74
2022/05/20 06:27:12;;;;;;;26.70;21.17;;;;;;;23.35;52.84;101834.22;10507900;28;20039;-74
2022/05/20 06:32:13;;;;;;;23.93;19.13;;;;;;;24.05;50.64;101843.75;10522716;28;20126;-75
2022/05/20 06:42:40;;;;;;;22.35;18.75;;;;;;;24.68;45.98;101837.84;10514220;28;20043;-74
2022/05/20 06:47:41;;;;;;;19.95;17.20;;;;;;;24.68;49.08;101834.25;10533315;28;20075;-75
2022/05/20 06:52:41;;;;;;;19.10;16.47;;;;;;;25.07;44.63;101830.88;10531325;28;20052;-75
2022/05/20 06:57:42;;;;;;;19.07;13.43;;;;;;;24.63;45.32;101803.03;10532589;27;20464;-75
2022/05/20 07:02:43;;;;;;;20.37;15.53;;;;;;;23.71;47.52;101780.19;10534847;27;20043;-75
2022/05/20 07:07:44;;;;;;;19.25;14.80;;;;;;;24.63;47.85;101767.34;10534471;27;20471;-75
2022/05/20 07:12:45;;;;;;;20.80;12.23;;;;;;;25.74;45.09;101758.59;10529701;27;20036;-76
2022/05/20 07:17:46;;;;;;;20.00;15.30;;;;;;;26.12;41.51;101758.50;10512308;27;20506;-75
2022/05/20 07:22:47;;;;;;;15.25;13.52;;;;;;;25.84;42.01;101751.44;10531136;27;20032;-76
2022/05/20 07:27:47;;;;;;;18.30;13.87;;;;;;;25.79;42.34;101737.16;10531470;27;20048;-75
2022/05/20 07:32:48;;;;;;;19.27;11.67;;;;;;;26.64;42.00;101735.97;10529117;27;20028;-76
2022/05/20 07:37:50;;;;;;;19.23;12.53;;;;;;;27.31;39.47;101728.34;10530141;27;20110;-75
2022/05/20 07:42:51;;;;;;;12.05;10.18;;;;;;;26.91;40.11;101726.84;10529021;27;20313;-76
2022/05/20 07:47:51;;;;;;;19.48;14.57;;;;;;;25.42;43.39;101738.03;10511247;27;20119;-75
2022/05/20 07:58:16;;;;;;;18.90;16.70;;;;;;;23.56;47.32;101706.19;10495514;27;20040;-76
2022/05/20 08:04:52;;;;;;;16.08;12.00;;;;;;;23.52;48.95;101700.78;10530188;27;20024;-77
2022/05/20 08:08:37;;;;;;;21.35;13.32;;;;;;;23.34;47.71;101721.13;10518830;27;20040;-77
2022/05/20 08:13:38;;;;;;;18.03;13.20;;;;;;;22.58;51.15;101704.38;10510609;27;20036;-77
2022/05/20 08:18:39;;;;;;;19.90;13.83;;;;;;;22.30;51.93;101696.03;10528273;27;20165;-77
2022/05/20 08:23:39;;;;;;;25.07;16.57;;;;;;;;;;10527084;27;20060;-77
2022/05/20 08:28:43;;;;;;;24.63;19.13;;;;;;;20.91;55.74;101700.09;10561085;27;20046;-77
2022/05/20 08:33:50;;;;;;;27.13;18.05;;;;;;;20.38;58.33;101689.34;10528501;27;20458;-77
2022/05/20 08:38:51;;;;;;;25.10;17.73;;;;;;;20.26;58.45;101686.44;10537357;27;20052;-76
2022/05/20 08:43:52;;;;;;;30.35;19.75;;;;;;;20.31;59.33;101679.47;10524301;27;20039;-77
2022/05/20 08:48:54;;;;;;;28.33;18.77;;;;;;;20.53;59.17;101679.88;10532665;27;20087;-77
2022/05/20 08:53:54;;;;;;;28.20;22.13;;;;;;;20.86;59.38;101661.88;10539474;27;20040;-77
2022/05/20 08:59:00;;;;;;;41.67;32.95;;;;;;;21.50;57.77;101655.81;10507455;27;20036;-77
2022/05/20 09:04:01;;;;;;;29.75;23.30;;;;;;;22.46;54.44;101643.78;10510413;27;20538;-80
2022/05/20 09:09:09;;;;;;;34.63;24.87;;;;;;;22.22;54.67;101639.94;10535063;27;20088;-77
2022/05/20 09:19:31;;;;;;;32.38;20.80;;;;;;;24.45;50.20;101604.97;10536030;27;20492;-76
2022/05/20 09:24:39;;;;;;;29.67;21.40;;;;;;;26.21;45.37;101592.19;10534799;27;20143;-77
2022/05/20 09:29:43;;;;;;;28.60;21.02;;;;;;;26.94;43.44;101587.19;10525657;28;20025;-80
2022/05/20 09:34:44;;;;;;;27.38;21.52;;;;;;;26.74;45.67;101575.69;10525192;28;20035;-78
2022/05/20 09:39:47;;;;;;;28.07;22.20;;;;;;;26.71;44.95;101560.53;10521313;27;20076;-79
2022/05/20 09:44:50;;;;;;;26.88;22.00;;;;;;;28.82;40.55;101556.97;10524157;27;20119;-80
2022/05/20 09:49:56;;;;;;;31.27;23.67;;;;;;;27.48;44.02;101553.47;10506474;27;20043;-77
2022/05/20 09:55:06;;;;;;;25.05;16.30;;;;;;;30.28;40.96;101522.50;10504302;27;20032;-77
2022/05/20 10:00:09;;;;;;;26.85;22.15;;;;;;;30.42;38.25;101487.03;10506688;27;20380;-78
2022/05/20 10:05:38;;;;;;;31.52;24.10;;;;;;;29.05;41.02;101467.66;10518120;27;20040;-78
2022/05/20 10:10:57;;;;;;;35.20;26.08;;;;;;;29.32;43.28;101451.81;10503222;27;20040;-78
2022/05/20 10:16:16;;;;;;;30.80;25.55;;;;;;;28.41;43.47;101428.41;10526971;27;20140;-77
2022/05/20 10:21:30;;;;;;;43.47;21.73;;;;;;;29.39;42.64;101413.06;10534505;27;20044;-77
2022/05/20 10:26:51;;;;;;;29.70;26.48;;;;;;;31.26;40.42;101401.00;10521659;27;20417;-79
2022/05/20 10:37:47;;;;;;;35.38;27.60;;;;;;;30.23;40.35;101375.97;10492007;28;20044;-77
2022/05/20 10:43:21;;;;;;;40.15;30.38;;;;;;;28.32;45.54;101380.13;10501154;27;20082;-77
2022/05/20 10:48:43;;;;;;;31.27;23.35;;;;;;;29.45;43.90;101377.88;10535131;27;20749;-77
2022/05/20 10:53:59;;;;;;;32.10;24.42;;;;;;;30.39;41.62;101353.97;10522467;27;20414;-76
2022/05/20 10:58:59;;;;;;;31.88;23.80;;;;;;;31.00;40.43;101343.19;10536456;27;20142;-78
2022/05/20 11:04:27;;;;;;;36.10;27.83;;;;;;;29.49;44.47;101313.09;10537766;27;20115;-77
2022/05/20 11:09:31;;;;;;;29.08;24.42;;;;;;;28.95;44.29;101259.50;10529571;27;20051;-78
2022/05/20 11:15:01;;;;;;;37.58;28.30;;;;;;;29.09;44.77;101221.47;10532942;27;20044;-77
2022/05/20 11:20:16;;;;;;;30.30;26.70;;;;;;;28.99;44.99;101210.03;10532606;27;20036;-78
2022/05/20 11:25:42;;;;;;;40.60;24.15;;;;;;;29.00;45.39;101216.31;10543991;28;20044;-80
2022/05/20 11:30:43;;;;;;;34.35;28.15;;;;;;;27.54;49.50;101198.63;10542044;28;20036;-77
2022/05/20 11:36:02;;;;;;;28.63;24.53;;;;;;;25.98;52.32;101206.19;10540254;28;20032;-78
2022/05/20 11:41:40;;;;;;;26.55;23.45;;;;;;;25.17;54.52;101189.03;10540221;28;20043;-75
2022/05/20 11:46:46;;;;;;;31.13;24.40;;;;;;;24.42;57.01;101187.69;10549189;28;20032;-77
2022/05/20 11:52:10;;;;;;;31.08;26.23;;;;;;;23.71;58.96;101189.66;10573186;28;20491;-76
2022/05/20 11:57:13;;;;;;;26.50;23.80;;;;;;;23.03;62.87;101187.00;10540122;28;20387;-74
2022/05/20 12:02:16;;;;;;;31.08;25.42;;;;;;;22.44;66.57;101187.75;10512710;28;20498;-73
2022/05/20 12:07:20;;;;;;;30.10;23.73;;;;;;;21.78;68.52;101187.38;10548496;28;20572;-74
2022/05/20 12:12:30;;;;;;;39.42;31.08;;;;;;;21.23;72.98;101197.63;10535195;28;20048;-76
2022/05/20 12:17:38;;;;;;;36.80;28.83;;;;;;;20.53;78.56;101209.28;10536855;28;20086;-77
2022/05/20 12:28:29;;;;;;;42.63;37.75;;;;;;;19.44;90.25;101263.47;10513020;28;20032;-74
2022/05/20 12:33:56;;;;;;;50.45;37.60;;;;;;;19.13;92.19;101321.28;10557338;28;20032;-74
2022/05/20 12:39:14;;;;;;;55.60;46.22;;;;;;;18.96;94.43;101315.59;10536686;28;20032;-76
2022/05/20 12:44:20;;;;;;;81.25;58.13;;;;;;;18.78;96.38;101263.97;10537468;28;20506;-77
2022/05/20 12:49:23;;;;;;;88.72;58.97;;;;;;;18.61;96.89;101160.25;10546349;28;20114;-76
2022/05/20 12:54:31;;;;;;;95.20;61.28;;;;;;;18.48;98.50;101091.97;10524804;28;20066;-78
2022/05/20 12:59:33;;;;;;;95.22;64.88;;;;;;;18.63;99.83;101089.63;10567514;27;20040;-75
2022/05/20 13:04:37;;;;;;;96.78;64.03;;;;;;;19.17;100.00;101121.50;10553150;28;20548;-75
2022/05/20 13:09:40;;;;;;;69.63;44.83;;;;;;;19.45;98.20;101115.72;10545004;28;20044;-76
2022/05/20 13:14:41;;;;;;;43.75;32.90;;;;;;;19.98;94.98;101137.72;10527502;28;20514;-76
2022/05/20 13:19:47;;;;;;;38.50;26.37;;;;;;;20.90;92.12;101140.56;10525586;28;20047;-76
2022/05/20 13:24:55;;;;;;;23.90;19.40;;;;;;;21.02;87.02;101129.13;10537951;28;20090;-74
2022/05/20 13:30:07;;;;;;;17.17;12.45;;;;;;;20.78;84.35;101114.72;10536051;28;20059;-77
2022/05/20 13:35:08;;;;;;;21.52;16.15;;;;;;;21.10;86.44;101129.19;10517083;28;20031;-75
2022/05/20 13:40:18;;;;;;;15.98;14.27;;;;;;;21.70;84.43;101144.75;10532713;28;20527;-76
2022/05/20 13:49:12;;;;;;;16.70;11.27;;;;;;;22.24;82.06;101176.97;10530884;28;20032;-76
2022/05/20 13:50:43;;;;;;;16.40;9.50;;;;;;;21.70;79.80;101174.91;10531331;28;20040;-76
2022/05/20 13:55:44;;;;;;;10.43;6.13;;;;;;;21.20;80.03;101157.69;10517437;28;20482;-76
2022/05/20 14:00:50;;;;;;;5.80;4.45;;;;;;;20.87;82.07;101159.16;9846285;27;10001538;-77
2022/05/20 14:06:04;;;;;;;8.35;5.13;;;;;;;20.24;82.87;101176.13;10445877;28;20242;-77
2022/05/20 14:11:04;;;;;;;5.43;3.67;;;;;;;19.46;85.18;101170.56;10447394;28;20328;-77
2022/05/20 14:16:30;;;;;;;6.63;4.00;;;;;;;19.12;86.57;101184.19;10440510;28;20059;-75
2022/05/20 14:21:33;;;;;;;7.78;3.83;;;;;;;19.28;86.27;101160.56;10444915;28;20405;-75
2022/05/20 14:26:35;;;;;;;7.63;3.95;;;;;;;19.57;86.69;101139.78;10410247;28;20037;-77
2022/05/20 14:31:39;;;;;;;5.30;3.22;;;;;;;19.58;84.80;101116.81;10439528;28;20037;-77
2022/05/20 14:36:40;;;;;;;4.97;3.45;;;;;;;19.37;85.09;101121.78;10433209;28;20033;-76
2022/05/20 14:41:42;;;;;;;7.35;3.67;;;;;;;19.14;86.78;101113.47;10451858;28;20452;-76
2022/05/20 14:52:10;;;;;;;5.05;2.83;;;;;;;19.01;85.78;101109.72;10449979;28;20025;-77
2022/05/20 14:57:20;;;;;;;8.10;3.72;;;;;;;19.67;86.21;101109.84;10424722;28;20108;-77
2022/05/20 15:02:22;;;;;;;3.88;2.80;;;;;;;19.61;82.85;101096.47;10465945;28;21803;-78
2022/05/20 15:07:22;;;;;;;3.70;2.85;;;;;;;18.94;83.31;101105.16;10438792;28;20088;-77
2022/05/20 15:12:23;;;;;;;6.65;2.85;;;;;;;18.67;85.89;101113.53;10403111;28;20573;-78
2022/05/20 15:17:23;;;;;;;5.95;3.10;;;;;;;18.28;87.31;101112.78;10442917;28;20084;-76
2022/05/20 15:22:24;;;;;;;5.45;3.58;;;;;;;18.16;90.18;101119.63;10459701;28;20040;-76
2022/05/20 15:27:26;;;;;;;5.68;4.18;;;;;;;18.24;88.64;101121.53;10449390;28;20067;-76
2022/05/20 15:37:46;;;;;;;7.60;4.25;;;;;;;18.15;89.46;101136.38;10459501;28;20084;-75
2022/05/20 15:42:47;;;;;;;6.30;4.35;;;;;;;18.38;88.88;101137.72;10472834;28;20086;-75
2022/05/20 15:47:49;;;;;;;7.40;4.75;;;;;;;18.22;88.03;101142.72;10458052;28;20059;-75
2022/05/20 15:52:53;;;;;;;;;;;;;;;18.10;88.96;101159.22;10456446;28;20469;-75
2022/05/20 15:57:56;;;;;;;14.35;10.73;;;;;;;18.64;83.89;101160.31;10458786;28;19917;-75
2022/05/20 16:02:57;;;;;;;15.23;11.80;;;;;;;19.13;80.06;101178.03;10433080;28;20065;-75
2022/05/20 16:08:00;;;;;;;18.52;12.75;;;;;;;19.26;77.80;101179.09;10458917;28;20033;-76
2022/05/20 16:13:00;;;;;;;13.90;12.25;;;;;;;18.97;78.99;101199.84;10458070;28;20045;-75
2022/05/20 16:18:01;;;;;;;15.38;13.07;;;;;;;18.72;77.91;101217.91;10459552;28;20033;-76
2022/05/20 16:23:02;;;;;;;16.05;13.70;;;;;;;18.05;78.65;101224.44;10455563;28;20159;-75
2022/05/20 16:28:03;;;;;;;17.42;14.65;;;;;;;17.30;79.46;101253.50;10456210;28;20037;-74
2022/05/20 16:33:04;;;;;;;19.98;16.92;;;;;;;16.72;80.81;101285.38;10440220;28;20032;-77
2022/05/20 16:38:05;;;;;;;18.42;16.42;;;;;;;16.37;81.79;101282.56;10442482;28;20033;-75
2022/05/20 16:43:05;;;;;;;23.08;18.55;;;;;;;16.34;81.32;101312.41;10444596;28;20072;-75
2022/05/20 16:48:17;;;;;;;25.45;18.90;;;;;;;16.00;82.82;101324.53;10472897;28;20490;-77
2022/05/20 16:53:19;;;;;;;16.67;14.95;;;;;;;15.79;81.99;101333.50;10452995;28;20045;-77
2022/05/20 17:03:39;;;;;;;16.73;13.55;;;;;;;15.16;83.87;101373.50;10450043;28;20643;-76
2022/05/20 17:08:39;;;;;;;16.67;12.25;;;;;;;15.19;82.88;101394.72;10449489;28;20041;-75
2022/05/20 17:13:40;;;;;;;14.13;11.63;;;;;;;15.25;82.00;101408.13;10451519;28;20049;-75
2022/05/20 17:18:44;;;;;;;11.18;9.90;;;;;;;15.13;81.63;101427.00;10452489;28;20233;-75
2022/05/20 17:29:04;;;;;;;11.52;7.88;;;;;;;14.48;82.85;101451.69;10452786;28;20087;-73
2022/05/20 17:34:05;;;;;;;9.15;8.02;;;;;;;14.34;83.00;101453.75;10453456;28;20049;-73
2022/05/20 17:39:05;;;;;;;15.52;8.93;;;;;;;14.25;84.22;101469.16;10453873;28;20029;-76
2022/05/20 17:44:06;;;;;;;12.27;8.70;;;;;;;14.17;84.25;101468.84;10453266;28;20389;-74
2022/05/20 17:49:06;;;;;;;7.75;5.75;;;;;;;14.03;83.99;101485.78;10453433;28;20046;-74
2022/05/20 17:54:07;;;;;;;9.77;4.53;;;;;;;13.91;84.39;101499.28;10460719;28;20082;-73
2022/05/20 17:59:08;;;;;;;9.50;4.05;;;;;;;14.11;83.63;101508.06;10466227;28;20044;-73
2022/05/20 18:04:10;;;;;;;7.50;5.13;;;;;;;14.17;81.62;101505.72;10471267;28;20035;-73
2022/05/20 18:09:13;;;;;;;8.57;5.18;;;;;;;14.21;79.53;101519.88;10454372;28;20045;-73
2022/05/20 18:14:14;;;;;;;8.13;6.60;;;;;;;13.98;80.30;101532.06;10429721;28;20041;-73
2022/05/20 18:19:14;;;;;;;11.18;6.88;;;;;;;13.63;82.32;101548.94;10452522;28;20080;-73
2022/05/20 18:24:15;;;;;;;9.70;6.50;;;;;;;13.38;82.69;101564.38;10444680;28;20176;-73
2022/05/20 18:29:15;;;;;;;13.73;8.00;;;;;;;13.21;82.36;101580.25;10471393;28;20032;-74
2022/05/20 18:39:38;;;;;;;;;;;;;;;13.03;83.11;101573.25;10459764;28;20040;-73
2022/05/20 18:44:39;;;;;;;13.30;10.07;;;;;;;12.99;83.89;101568.69;10460868;28;20264;-73
2022/05/20 18:49:39;;;;;;;14.18;11.90;;;;;;;13.02;84.34;101560.94;10452603;28;20438;-73
2022/05/20 18:54:41;;;;;;;17.70;12.98;;;;;;;12.86;84.02;101555.78;10452743;28;20063;-74
2022/05/20 18:59:42;;;;;;;17.48;12.18;;;;;;;12.54;85.16;101560.31;10454101;28;20395;-73
2022/05/20 19:04:42;;;;;;;21.10;14.13;;;;;;;12.23;87.01;101572.75;10454451;28;20025;-74
2022/05/20 19:09:43;;;;;;;24.77;16.45;;;;;;;12.02;88.14;101586.53;10450535;28;20045;-73
2022/05/20 19:14:43;;;;;;;19.50;14.82;;;;;;;12.00;89.32;101592.53;10451091;28;20037;-74
2022/05/20 19:19:44;;;;;;;23.70;14.48;;;;;;;12.03;89.24;101606.72;10460238;28;20162;-74
2022/05/20 19:24:44;;;;;;;22.77;17.35;;;;;;;11.83;89.59;101609.94;10452464;28;20079;-73
2022/05/20 19:29:45;;;;;;;21.25;14.60;;;;;;;11.65;89.39;101630.84;10440391;28;20118;-73
2022/05/20 19:34:45;;;;;;;17.80;12.00;;;;;;;11.57;90.03;101643.50;10453927;28;20060;-74
2022/05/20 19:39:46;;;;;;;15.93;11.75;;;;;;;11.68;89.09;101650.25;10448266;28;20130;-73
2022/05/20 19:44:46;;;;;;;18.67;11.23;;;;;;;11.89;87.13;101663.66;10453982;28;20112;-74
2022/05/20 19:49:47;;;;;;;12.80;8.93;;;;;;;12.04;85.62;101691.59;10444601;28;20087;-74
2022/05/20 19:54:47;;;;;;;10.15;8.23;;;;;;;12.09;85.16;101703.22;10433566;28;20069;-74
2022/05/20 20:05:07;;;;;;;10.48;7.57;;;;;;;12.06;82.92;101708.31;10445126;28;20029;-74
2022/05/20 20:10:08;;;;;;;11.73;7.28;;;;;;;11.81;84.08;101725.28;10455245;28;20124;-73
2022/05/20 20:15:08;;;;;;;10.35;7.60;;;;;;;11.49;84.11;101736.53;10450122;28;20130;-74
2022/05/20 20:20:09;;;;;;;11.20;6.65;;;;;;;11.31;84.44;101742.50;10439103;28;20078;-74
2022/05/20 20:30:29;;;;;;;10.27;5.20;;;;;;;11.19;84.35;101749.66;10444049;28;20401;-73
2022/05/20 20:35:29;;;;;;;9.25;5.47;;;;;;;10.98;85.29;101752.78;10449485;28;20116;-74
2022/05/20 20:40:30;;;;;;;6.72;4.90;;;;;;;10.77;85.96;101763.78;10414402;28;20065;-73
2022/05/20 20:45:30;;;;;;;7.35;5.28;;;;;;;10.63;86.45;101759.41;10454174;28;20035;-73
2022/05/20 20:50:34;;;;;;;12.02;7.28;;;;;;;10.56;87.30;101766.88;10443148;28;20029;-73
2022/05/20 20:55:35;;;;;;;10.10;6.00;;;;;;;10.47;87.97;101773.28;10453830;28;20028;-74
2022/05/20 21:00:35;;;;;;;11.60;8.23;;;;;;;10.51;88.52;101781.41;10459747;28;20114;-73
2022/05/20 21:05:36;;;;;;;13.77;9.55;;;;;;;10.42;88.81;101791.28;10457232;28;20029;-74
2022/05/20 21:10:37;;;;;;;13.02;7.55;;;;;;;10.32;89.22;101786.25;10476284;28;20446;-74
2022/05/20 21:15:38;;;;;;;19.52;11.23;;;;;;;10.17;89.71;101794.03;10459486;28;20041;-73
2022/05/20 21:20:41;;;;;;;10.57;7.23;;;;;;;10.08;90.71;101795.25;10435255;28;20025;-73
2022/05/20 21:25:42;;;;;;;12.85;7.70;;;;;;;10.05;91.09;101815.97;10461791;28;20037;-73
2022/05/20 21:30:42;;;;;;;15.38;9.70;;;;;;;10.05;91.23;101825.53;10453383;28;20057;-74
2022/05/20 21:35:43;;;;;;;13.27;8.02;;;;;;;10.00;90.82;101830.47;10453622;28;20127;-73
2022/05/20 21:40:43;;;;;;;12.30;6.30;;;;;;;9.91;91.03;101841.22;10452450;28;20576;-73
2022/05/20 21:45:44;;;;;;;9.23;6.45;;;;;;;9.86;91.84;101842.63;10480118;28;20465;-73
2022/05/20 21:50:46;;;;;;;13.77;6.22;;;;;;;9.86;91.52;101841.72;10452220;28;20044;-73
2022/05/20 21:55:47;;;;;;;9.77;6.50;;;;;;;9.75;91.58;101849.75;10434764;28;20040;-73
2022/05/20 22:11:27;;;;;;;10.57;7.95;;;;;;;9.48;93.48;101865.41;10450024;28;20041;-73
2022/05/20 22:16:28;;;;;;;10.90;7.18;;;;;;;9.44;93.79;101858.16;10458159;28;20477;-73
2022/05/20 22:21:30;;;;;;;13.57;7.97;;;;;;;9.37;94.06;101850.69;10439069;28;20035;-73
2022/05/20 22:26:30;;;;;;;12.00;7.97;;;;;;;9.38;94.54;101847.28;10451591;28;20102;-73
2022/05/20 22:31:31;;;;;;;11.65;7.68;;;;;;;9.35;94.65;101847.97;10475825;28;20129;-73
2022/05/20 22:36:31;;;;;;;11.75;8.38;;;;;;;9.18;94.32;101839.00;10476833;28;20484;-72
2022/05/20 22:41:32;;;;;;;10.85;6.78;;;;;;;9.08;95.05;101846.97;10450810;28;20083;-72
2022/05/20 22:46:32;;;;;;;14.75;8.95;;;;;;;9.03;95.95;101849.25;10451491;28;20025;-72
2022/05/20 22:51:33;;;;;;;11.32;7.70;;;;;;;8.99;96.38;101847.22;10453604;28;20076;-73
2022/05/20 22:56:34;;;;;;;17.63;9.60;;;;;;;8.94;97.00;101849.53;10451019;28;20044;-72
2022/05/20 23:01:37;;;;;;;15.48;9.85;;;;;;;8.91;96.97;101848.41;10464805;28;20530;-73
2022/05/20 23:06:49;;;;;;;13.88;9.30;;;;;;;8.88;96.67;101845.56;10468459;28;20040;-72
2022/05/20 23:11:50;;;;;;;22.17;13.15;;;;;;;8.79;96.72;101854.56;10466004;28;20546;-72
2022/05/20 23:16:50;;;;;;;17.27;10.15;;;;;;;8.77;97.49;101850.94;10446852;28;20090;-73
2022/05/20 23:21:51;;;;;;;22.60;12.32;;;;;;;8.79;98.05;101857.19;10469220;28;20544;-72
2022/05/20 23:26:51;;;;;;;20.15;12.95;;;;;;;8.66;98.03;101852.81;10457803;28;20092;-73
2022/05/20 23:31:53;;;;;;;19.50;12.30;;;;;;;8.72;97.73;101852.31;10459634;28;20072;-72
2022/05/20 23:36:54;;;;;;;16.52;11.15;;;;;;;8.84;98.23;101848.78;10457030;28;20426;-73
2022/05/20 23:41:54;;;;;;;16.67;11.57;;;;;;;8.93;97.71;101850.34;10472892;28;20116;-73
2022/05/20 23:46:55;;;;;;;16.95;11.27;;;;;;;8.89;97.56;101848.31;10455900;28;20047;-73
2022/05/20 23:51:57;;;;;;;18.92;12.57;;;;;;;8.91;97.64;101841.50;10457999;28;20052;-73
2022/05/20 23:57:06;;;;;;;16.00;10.40;;;;;;;9.10;97.17;101833.22;10472412;28;20044;-73
